Dades meteomassalio
Diari Summary for Gener 12, 2018 Units:  Metric    English   Both
« Previous Day
Next Day »
Diari Semanal Mensual Anual Personalitzat
  Maxima: Minima: Mijana:
Temperatura: -17.8 °C -16.8 °C -13.9 °C
Rosada: -17.8 °C -18 °C -16.1 °C
Humitat: Humidity % 66 % 75 %
Velocitat del vent: 0 km/h 0 km/h 27.7 km/h
Racha vent: 0 km/h - -
Vent:- - NW
Pressio: 0 hPa 34703.1 hPa -
Pluja: 0 mm    
Historical Graphs
 
 
Tabular Data for Gener 12, 2018
Time Temperature Dew Point Pressure Wind Wind Speed Wind Gust Humidity Rainfall Rate (Hourly) solar Conditions
-17.8 °C -17.8 °C 0 hPa Calm     Humidity % 0 mm SolarRadiationWatts/m^2 W/m2 Conditions
00:00 -14.4 °C -16.6 °C 34703.1 hPa NW 38.8 km/h 38.8 km/h 76 % 0 mm 0.0 W/m2 CLR
00:01 -14.4 °C -16.6 °C 34716.7 hPa North 20.9 km/h 20.9 km/h 76 % 0 mm 0.0 W/m2 CLR
00:09 -14.4 °C -16.6 °C 34703.1 hPa NW 29.8 km/h 29.8 km/h 76 % 0 mm 0.0 W/m2 CLR
00:22 -14.4 °C -16.6 °C 34716.7 hPa NNW 35.7 km/h 35.7 km/h 76 % 0 mm 0.0 W/m2 CLR
00:39 -14.4 °C -16.6 °C 34716.7 hPa NW 15.6 km/h 15.6 km/h 76 % 0 mm 0.0 W/m2 CLR
00:41 -14.4 °C -16.4 °C 34716.7 hPa NW 29.8 km/h 29.8 km/h 77 % 0 mm 0.0 W/m2 CLR
00:44 -14.4 °C -16.4 °C 34716.7 hPa NNW 29.8 km/h 29.8 km/h 77 % 0 mm 0.0 W/m2 CLR
00:49 -14.4 °C -16.4 °C 34716.7 hPa NNW 29.8 km/h 29.8 km/h 77 % 0 mm 0.0 W/m2 CLR
00:54 -14.4 °C -16.4 °C 34726.8 hPa NNW 29.8 km/h 29.8 km/h 77 % 0 mm 0.0 W/m2 CLR
01:00 -14.4 °C -16.4 °C 34716.7 hPa NNW 32.8 km/h 32.8 km/h 77 % 0 mm 0.0 W/m2 CLR
01:12 -14.4 °C -16.3 °C 34716.7 hPa NW 23.8 km/h 23.8 km/h 78 % 0 mm 0.0 W/m2 CLR
01:24 -14.4 °C -16.3 °C 34716.7 hPa WNW 29.8 km/h 29.8 km/h 79 % 0 mm 0.0 W/m2 CLR
01:32 -14.4 °C -16.3 °C 34716.7 hPa NW 38.8 km/h 38.8 km/h 79 % 0 mm 0.0 W/m2 CLR
01:41 -14.7 °C -16.6 °C 34716.7 hPa NNW 32.8 km/h 32.8 km/h 79 % 0 mm 0.0 W/m2 CLR
01:47 -14.7 °C -16.4 °C 34716.7 hPa NNW 26.9 km/h 26.9 km/h 80 % 0 mm 0.0 W/m2 CLR
01:58 -15 °C -16.7 °C 34726.8 hPa NNW 26.9 km/h 26.9 km/h 81 % 0 mm 0.0 W/m2 CLR
02:04 -15 °C -16.7 °C 34726.8 hPa NW 29.8 km/h 29.8 km/h 81 % 0 mm 0.0 W/m2 CLR
02:20 -15 °C -16.6 °C 34716.7 hPa WNW 17.9 km/h 17.9 km/h 82 % 0 mm 0.0 W/m2 CLR
02:38 -15 °C -16.6 °C 34726.8 hPa WNW 29.8 km/h 29.8 km/h 82 % 0 mm 0.0 W/m2 CLR
02:50 -15 °C -16.7 °C 34726.8 hPa WNW 29.8 km/h 29.8 km/h 81 % 0 mm 0.0 W/m2 CLR
02:55 -15 °C -16.7 °C 34726.8 hPa NNW 32.8 km/h 32.8 km/h 81 % 0 mm 0.0 W/m2 CLR
03:05 -14.7 °C -16.3 °C 34726.8 hPa WNW 38.8 km/h 38.8 km/h 81 % 0 mm 0.0 W/m2 CLR
03:18 -15 °C -16.7 °C 34740.4 hPa NNW 35.7 km/h 35.7 km/h 81 % 0 mm 0.0 W/m2 CLR
03:28 -15 °C -16.6 °C 34740.4 hPa NW 35.7 km/h 35.7 km/h 82 % 0 mm 0.0 W/m2 CLR
03:42 -14.7 °C -16.3 °C 34740.4 hPa WNW 31.1 km/h 31.1 km/h 81 % 0 mm 0.0 W/m2 CLR
03:48 -14.7 °C -16.3 °C 34726.8 hPa WNW 29.8 km/h 30.1 km/h 81 % 0 mm 0.0 W/m2 CLR
03:56 -14.7 °C -16.3 °C 34726.8 hPa NW 32.8 km/h 32.8 km/h 81 % 0 mm 0.0 W/m2 CLR
04:01 -14.7 °C -16.3 °C 34726.8 hPa WNW 32.8 km/h 32.8 km/h 81 % 0 mm 0.0 W/m2 CLR
04:11 -14.7 °C -16.4 °C 34726.8 hPa NW 32.8 km/h 32.8 km/h 80 % 0 mm 0.0 W/m2 CLR
04:18 -14.4 °C -16.2 °C 34726.8 hPa NW 44.7 km/h 44.7 km/h 80 % 0 mm 0.0 W/m2 CLR
04:49 -14.1 °C -16.1 °C 34726.8 hPa NW 47.6 km/h 47.6 km/h 78 % 0 mm 0.0 W/m2 CLR
05:06 -14.1 °C -15.9 °C 34726.8 hPa NW 35.7 km/h 35.7 km/h 79 % 0 mm 0.0 W/m2 CLR
05:15 -14.1 °C -15.9 °C 34726.8 hPa NW 38.8 km/h 38.8 km/h 79 % 0 mm 0.0 W/m2 CLR
05:45 -14.1 °C -15.9 °C 34740.4 hPa NW 32.8 km/h 32.8 km/h 79 % 0 mm 0.0 W/m2 CLR
05:52 -14.1 °C -15.9 °C 34726.8 hPa NW 35.7 km/h 35.7 km/h 79 % 0 mm 0.0 W/m2 CLR
06:05 -14.1 °C -15.9 °C 34740.4 hPa WNW 38.8 km/h 38.8 km/h 79 % 0 mm 0.0 W/m2 CLR
06:17 -14.4 °C -16.3 °C 34740.4 hPa NW 35.7 km/h 35.7 km/h 79 % 0 mm 0.0 W/m2 CLR
06:24 -14.4 °C -16.3 °C 34740.4 hPa WNW 32.8 km/h 32.8 km/h 79 % 0 mm 0.0 W/m2 CLR
06:31 -14.4 °C -16.2 °C 34740.4 hPa WNW 41.7 km/h 41.7 km/h 80 % 0 mm 0.0 W/m2 CLR
06:56 -13.8 °C -15.7 °C 34740.4 hPa WNW 38.8 km/h 38.8 km/h 78 % 0 mm 0.0 W/m2 CLR
07:04 -14.1 °C -16.1 °C 34740.4 hPa NW 38.8 km/h 38.8 km/h 78 % 0 mm 0.0 W/m2 CLR
07:27 -13.8 °C -15.9 °C 34740.4 hPa NW 32.8 km/h 32.8 km/h 77 % 0 mm 0.0 W/m2 CLR
07:45 -14.1 °C -16.2 °C 34740.4 hPa NW 29.8 km/h 29.8 km/h 77 % 0 mm 0.0 W/m2 CLR
07:51 -14.1 °C -16.1 °C 34750.5 hPa WNW 38.8 km/h 38.8 km/h 78 % 0 mm 0.0 W/m2 CLR
08:08 -14.1 °C -16.2 °C 34750.5 hPa NW 31.1 km/h 36.2 km/h 77 % 0 mm 0.0 W/m2 CLR
08:28 -14.1 °C -16.1 °C 34750.5 hPa NW 29.8 km/h 29.8 km/h 78 % 0 mm 5.0 W/m2 OVC
08:44 -14.1 °C -16.1 °C 34750.5 hPa NW 32.8 km/h 32.8 km/h 78 % 0 mm 11.0 W/m2 BKN
09:01 -14.1 °C -16.2 °C 34750.5 hPa NW 32.8 km/h 32.8 km/h 77 % 0 mm 25.0 W/m2 BKN
09:23 -13.8 °C -15.9 °C 34760.7 hPa NW 38.8 km/h 38.8 km/h 77 % 0 mm 47.0 W/m2 SCT
09:37 -13.8 °C -15.9 °C 34760.7 hPa NW 56.6 km/h 56.6 km/h 76 % 0 mm 47.0 W/m2 SCT
09:49 -13.4 °C -15.7 °C 34760.7 hPa North 41.7 km/h 41.7 km/h 76 % 0 mm 51.0 W/m2 SCT
09:56 -13.4 °C -15.7 °C 34760.7 hPa NW 65.5 km/h 65.5 km/h 76 % 0 mm 183.0 W/m2 FEW
10:01 -13.4 °C -15.7 °C 34760.7 hPa NW 53.6 km/h 53.6 km/h 76 % 0 mm 195.0 W/m2 CLR
10:13 -13.2 °C -15.4 °C 34774.2 hPa NW 47.6 km/h 47.6 km/h 75 % 0 mm 123.0 W/m2 CLR
10:19 -13.2 °C -15.6 °C 34774.2 hPa NW 46.7 km/h 46.7 km/h 74 % 0 mm 70.0 W/m2 CLR
10:35 -12.8 °C -15.4 °C 34774.2 hPa NNW 62.6 km/h 62.6 km/h 73 % 0 mm 70.0 W/m2 CLR
10:55 -12.8 °C -15.4 °C 34774.2 hPa NW 50.7 km/h 50.7 km/h 73 % 0 mm 139.0 W/m2 CLR
11:02 -12.6 °C -15.2 °C 34774.2 hPa NNW 53.6 km/h 53.6 km/h 72 % 0 mm 137.0 W/m2 CLR
11:08 -12.6 °C -15.2 °C 34784.4 hPa North 50.7 km/h 50.7 km/h 72 % 0 mm 141.0 W/m2 CLR
11:15 -12.6 °C -15.3 °C 34774.2 hPa North 54.4 km/h 54.4 km/h 71 % 0 mm 146.0 W/m2 CLR
11:43 -12.2 °C -15.1 °C 34774.2 hPa NW 32.8 km/h 32.8 km/h 70 % 0 mm 139.0 W/m2 CLR
12:14 -12.6 °C -15.4 °C 34774.2 hPa NW 44.7 km/h 44.7 km/h 70 % 0 mm 116.0 W/m2 CLR
12:27 -12.2 °C -15.1 °C 34774.2 hPa NNW 38.8 km/h 38.8 km/h 70 % 0 mm 158.0 W/m2 CLR
12:44 -11.6 °C -14.9 °C 34760.7 hPa NW 38.8 km/h 38.8 km/h 67 % 0 mm 274.0 W/m2 CLR
12:54 -11.9 °C -15.1 °C 34750.5 hPa NW 47.6 km/h 47.6 km/h 68 % 0 mm 197.0 W/m2 CLR
13:10 -11.6 °C -14.8 °C 34750.5 hPa NNW 44.1 km/h 44.1 km/h 68 % 0 mm 306.0 W/m2 CLR
13:23 -11.6 °C -14.9 °C 34740.4 hPa NW 44.7 km/h 44.7 km/h 67 % 0 mm 156.0 W/m2 CLR
13:42 -11.9 °C -15.2 °C 34740.4 hPa North 53.6 km/h 53.6 km/h 67 % 0 mm 146.0 W/m2 CLR
13:48 -11.9 °C -15.1 °C 34740.4 hPa North 50.7 km/h 50.7 km/h 68 % 0 mm 127.0 W/m2 CLR
14:02 -11.9 °C -14.9 °C 34740.4 hPa NNW 29.8 km/h 29.8 km/h 69 % 0 mm 179.0 W/m2 CLR
14:09 -11.9 °C -14.9 °C 34740.4 hPa North 50.7 km/h 50.7 km/h 69 % 0 mm 151.0 W/m2 CLR
14:14 -11.9 °C -14.9 °C 34726.8 hPa North 44.7 km/h 44.7 km/h 69 % 0 mm 174.0 W/m2 CLR
14:39 -11.9 °C -14.8 °C 34726.8 hPa NW 15.6 km/h 15.6 km/h 70 % 0 mm 83.0 W/m2 CLR
14:56 -11.9 °C -14.9 °C 34716.7 hPa North 44.7 km/h 44.7 km/h 69 % 0 mm 47.0 W/m2 FEW
15:02 -12.2 °C -15.1 °C 34726.8 hPa North 44.7 km/h 44.7 km/h 70 % 0 mm 49.0 W/m2 SCT
15:16 -11.9 °C -14.7 °C 34726.8 hPa NE 26.9 km/h 26.9 km/h 71 % 0 mm 109.0 W/m2 CLR
15:34 -12.2 °C -15.2 °C 34716.7 hPa NNW 32.8 km/h 32.8 km/h 69 % 0 mm 56.0 W/m2 SCT
16:03 -11.9 °C -15.2 °C 34716.7 hPa NW 47.6 km/h 47.6 km/h 67 % 0 mm 114.0 W/m2 CLR
16:12 -11.9 °C -15.3 °C 34716.7 hPa NNW 32.8 km/h 32.8 km/h 66 % 0 mm 86.0 W/m2 CLR
16:18 -11.9 °C -15.2 °C 34716.7 hPa NW 41.7 km/h 41.7 km/h 67 % 0 mm 47.0 W/m2 FEW
16:28 -12.2 °C -15.4 °C 34716.7 hPa NNW 29.8 km/h 29.8 km/h 67 % 0 mm 53.0 W/m2 FEW
16:41 -12.2 °C -15.4 °C 34716.7 hPa North 29.8 km/h 29.8 km/h 67 % 0 mm 39.0 W/m2 BKN
16:57 -12.2 °C -15.4 °C 34716.7 hPa North 29.8 km/h 29.8 km/h 67 % 0 mm 21.0 W/m2 BKN
17:09 -12.2 °C -15.4 °C 34726.8 hPa NNW 29.8 km/h 29.8 km/h 68 % 0 mm 26.0 W/m2 BKN
17:15 -12.2 °C -15.4 °C 34726.8 hPa NNW 9 km/h   68 % 0 mm 21.0 W/m2 BKN
17:28 -12.2 °C -15.2 °C 34726.8 hPa Calm     69 % 0 mm 12.0 W/m2 BKN
17:35 -12.6 °C -15.4 °C 34726.8 hPa Calm     70 % 0 mm 0.0 W/m2 OVC
18:00 -12.8 °C -15.7 °C 34726.8 hPa Calm     70 % 0 mm 0.0 W/m2 OVC
18:12 -12.8 °C -15.7 °C 34726.8 hPa NNW 23.8 km/h 23.8 km/h 70 % 0 mm 0.0 W/m2 CLR
18:45 -12.8 °C -15.7 °C 34740.4 hPa Calm     70 % 0 mm 0.0 W/m2 CLR
18:51 -12.8 °C -15.7 °C 34740.4 hPa Calm     70 % 0 mm 0.0 W/m2 CLR
18:56 -12.8 °C -15.7 °C 34740.4 hPa Calm     70 % 0 mm 0.0 W/m2 CLR
19:20 -13.4 °C -16.3 °C 34750.5 hPa Calm     70 % 0 mm 0.0 W/m2 CLR
19:28 -13.8 °C -16.5 °C 34740.4 hPa Calm     71 % 0 mm 0.0 W/m2 CLR
19:43 -14.1 °C -16.7 °C 34750.5 hPa Calm     72 % 0 mm 0.0 W/m2 CLR
19:48 -14.1 °C -16.7 °C 34750.5 hPa Calm     72 % 0 mm 0.0 W/m2 CLR
20:17 -14.7 °C -17.2 °C 34750.5 hPa Calm     73 % 0 mm 0.0 W/m2 CLR
20:29 -15 °C -17.3 °C 34760.7 hPa Calm     75 % 0 mm 0.0 W/m2 CLR
20:42 -15 °C -17.1 °C 34760.7 hPa Calm     77 % 0 mm 0.0 W/m2 CLR
20:52 -15.3 °C -17.3 °C 34760.7 hPa Calm     78 % 0 mm 0.0 W/m2 CLR
21:00 -15.3 °C -17.2 °C 34760.7 hPa Calm     79 % 0 mm 0.0 W/m2 CLR
21:06 -15.3 °C -17.2 °C 34760.7 hPa Calm     79 % 0 mm 0.0 W/m2 CLR
21:12 -15.6 °C -17.4 °C 34760.7 hPa Calm     79 % 0 mm 0.0 W/m2 CLR
21:31 -15.3 °C -16.9 °C 34760.7 hPa Calm     82 % 0 mm 0.0 W/m2 CLR
21:39 -15.3 °C -17 °C 34760.7 hPa Calm     81 % 0 mm 0.0 W/m2 CLR
21:44 -15.3 °C -17 °C 34760.7 hPa Calm     81 % 0 mm 0.0 W/m2 CLR
21:53 -15.6 °C -17 °C 34760.7 hPa Calm     84 % 0 mm 0.0 W/m2 CLR
21:59 -15.6 °C -17.1 °C 34760.7 hPa Calm     83 % 0 mm 0.0 W/m2 CLR
22:21 -15.9 °C -17.2 °C 34750.5 hPa WNW 15.6 km/h 15.6 km/h 85 % 0 mm 0.0 W/m2 CLR
22:29 -16.2 °C -17.9 °C 34750.5 hPa WNW 17.9 km/h   80 % 0 mm 0.0 W/m2 CLR
22:38 -16.2 °C -17.9 °C 34750.5 hPa WNW 17.9 km/h   80 % 0 mm 0.0 W/m2 CLR
22:51 -16.2 °C -17.7 °C 34750.5 hPa Calm     83 % 0 mm 0.0 W/m2 CLR
23:07 -16.2 °C -17.5 °C 34760.7 hPa Calm     85 % 0 mm 0.0 W/m2 CLR
23:26 -16.6 °C -17.7 °C 34760.7 hPa Calm     86 % 0 mm 0.0 W/m2 CLR
23:44 -16.8 °C -18 °C 34750.5 hPa Calm     86 % 0 mm 0.0 W/m2 CLR
Lo Temps de Massalio
Compliments of Weather Underground - 768 kb